Terminal Aerodrome Forecast
Issued by NWS

Home | Current Version | Previous Version | Text Only | Print | Product List | Glossary On
Versions: 1 2 3 4 5 6 7 8 9 10 11 12 13 14 15 16 17 18 19 20
000
FTUS43 KDVN 201300 AAA
TAFCID
TAF AMD
KCID 201331Z 2014/2112 25007KT 4SM BR SCT120 OVC150
      TEMPO 2014/2016 6SM BR
     FM201600 25011KT P6SM VCSH SCT015 BKN035
     FM201700 28012G18KT P6SM SCT050
     FM210000 29006KT P6SM SKC=

USA.gov is the U.S. government's official web portal to all federal, state and local government web resources and services.